sensor_id;sensor_type;location;lat;lon;timestamp;P1;durP1;ratioP1;P2;durP2;ratioP2
35330;SDS011;21441;52.190;20.910;2022-12-20T00:01:13;24.80;;;11.82;;
35330;SDS011;21441;52.190;20.910;2022-12-20T00:03:41;33.88;;;17.15;;
35330;SDS011;21441;52.190;20.910;2022-12-20T00:06:09;40.35;;;16.38;;
35330;SDS011;21441;52.190;20.910;2022-12-20T00:08:37;33.78;;;17.33;;
35330;SDS011;21441;52.190;20.910;2022-12-20T00:11:06;40.47;;;18.42;;
35330;SDS011;21441;52.190;20.910;2022-12-20T00:13:35;27.42;;;15.25;;
35330;SDS011;21441;52.190;20.910;2022-12-20T00:16:03;42.33;;;19.05;;
35330;SDS011;21441;52.190;20.910;2022-12-20T00:18:32;33.27;;;11.50;;
35330;SDS011;21441;52.190;20.910;2022-12-20T00:20:59;35.80;;;16.73;;
35330;SDS011;21441;52.190;20.910;2022-12-20T00:23:27;38.25;;;16.33;;
35330;SDS011;21441;52.190;20.910;2022-12-20T00:25:59;42.72;;;17.42;;
35330;SDS011;21441;52.190;20.910;2022-12-20T00:28:28;39.85;;;19.40;;
35330;SDS011;21441;52.190;20.910;2022-12-20T00:30:56;36.28;;;16.98;;
35330;SDS011;21441;52.190;20.910;2022-12-20T00:33:23;29.33;;;14.73;;
35330;SDS011;21441;52.190;20.910;2022-12-20T00:35:51;33.88;;;16.25;;
35330;SDS011;21441;52.190;20.910;2022-12-20T00:38:18;36.28;;;16.10;;
35330;SDS011;21441;52.190;20.910;2022-12-20T00:40:45;34.75;;;16.88;;
35330;SDS011;21441;52.190;20.910;2022-12-20T00:43:12;46.95;;;22.20;;
35330;SDS011;21441;52.190;20.910;2022-12-20T00:45:41;37.45;;;16.23;;
35330;SDS011;21441;52.190;20.910;2022-12-20T00:48:07;38.97;;;16.88;;
35330;SDS011;21441;52.190;20.910;2022-12-20T00:50:35;41.28;;;20.02;;
35330;SDS011;21441;52.190;20.910;2022-12-20T00:53:01;26.42;;;13.75;;
35330;SDS011;21441;52.190;20.910;2022-12-20T00:55:29;36.03;;;20.50;;
35330;SDS011;21441;52.190;20.910;2022-12-20T00:57:56;24.77;;;13.07;;
35330;SDS011;21441;52.190;20.910;2022-12-20T01:00:23;39.28;;;15.25;;
35330;SDS011;21441;52.190;20.910;2022-12-20T01:02:51;31.10;;;16.13;;
35330;SDS011;21441;52.190;20.910;2022-12-20T01:05:18;39.50;;;17.42;;
35330;SDS011;21441;52.190;20.910;2022-12-20T01:07:45;35.90;;;16.60;;
35330;SDS011;21441;52.190;20.910;2022-12-20T01:10:14;30.55;;;15.68;;
35330;SDS011;21441;52.190;20.910;2022-12-20T01:12:42;25.63;;;11.68;;
35330;SDS011;21441;52.190;20.910;2022-12-20T01:15:10;33.08;;;16.83;;
35330;SDS011;21441;52.190;20.910;2022-12-20T01:17:37;34.13;;;16.52;;
35330;SDS011;21441;52.190;20.910;2022-12-20T01:20:06;33.65;;;15.13;;
35330;SDS011;21441;52.190;20.910;2022-12-20T01:22:34;19.88;;;12.00;;
35330;SDS011;21441;52.190;20.910;2022-12-20T01:25:02;36.13;;;16.88;;
35330;SDS011;21441;52.190;20.910;2022-12-20T01:27:29;34.05;;;14.50;;
35330;SDS011;21441;52.190;20.910;2022-12-20T01:29:56;33.83;;;13.98;;
35330;SDS011;21441;52.190;20.910;2022-12-20T01:32:23;24.67;;;12.80;;
35330;SDS011;21441;52.190;20.910;2022-12-20T01:34:50;45.08;;;18.17;;
35330;SDS011;21441;52.190;20.910;2022-12-20T01:37:20;33.22;;;15.15;;
35330;SDS011;21441;52.190;20.910;2022-12-20T01:39:48;32.58;;;15.40;;
35330;SDS011;21441;52.190;20.910;2022-12-20T01:42:15;27.70;;;11.95;;
35330;SDS011;21441;52.190;20.910;2022-12-20T01:44:53;35.75;;;17.42;;
35330;SDS011;21441;52.190;20.910;2022-12-20T01:47:23;37.58;;;17.02;;
35330;SDS011;21441;52.190;20.910;2022-12-20T01:49:52;39.20;;;17.17;;
35330;SDS011;21441;52.190;20.910;2022-12-20T01:52:24;24.17;;;13.40;;
35330;SDS011;21441;52.190;20.910;2022-12-20T01:54:55;41.20;;;17.42;;
35330;SDS011;21441;52.190;20.910;2022-12-20T01:57:28;32.15;;;17.02;;
35330;SDS011;21441;52.190;20.910;2022-12-20T02:00:00;34.33;;;15.48;;
35330;SDS011;21441;52.190;20.910;2022-12-20T02:02:29;28.42;;;12.73;;
35330;SDS011;21441;52.190;20.910;2022-12-20T02:04:57;29.80;;;13.88;;
35330;SDS011;21441;52.190;20.910;2022-12-20T02:07:27;43.85;;;17.75;;
35330;SDS011;21441;52.190;20.910;2022-12-20T02:09:57;38.53;;;18.52;;
35330;SDS011;21441;52.190;20.910;2022-12-20T02:12:27;28.73;;;11.97;;
35330;SDS011;21441;52.190;20.910;2022-12-20T02:15:16;42.40;;;18.92;;
35330;SDS011;21441;52.190;20.910;2022-12-20T02:17:56;41.97;;;17.08;;
35330;SDS011;21441;52.190;20.910;2022-12-20T02:23:37;35.13;;;16.27;;
35330;SDS011;21441;52.190;20.910;2022-12-20T02:26:20;36.13;;;16.15;;
35330;SDS011;21441;52.190;20.910;2022-12-20T02:31:41;44.83;;;18.42;;
35330;SDS011;21441;52.190;20.910;2022-12-20T02:34:13;47.33;;;20.17;;
35330;SDS011;21441;52.190;20.910;2022-12-20T02:36:42;49.30;;;19.35;;
35330;SDS011;21441;52.190;20.910;2022-12-20T02:39:10;41.60;;;17.90;;
35330;SDS011;21441;52.190;20.910;2022-12-20T02:41:40;29.13;;;13.75;;
35330;SDS011;21441;52.190;20.910;2022-12-20T02:44:11;39.03;;;15.43;;
35330;SDS011;21441;52.190;20.910;2022-12-20T02:47:00;36.60;;;16.70;;
35330;SDS011;21441;52.190;20.910;2022-12-20T02:49:31;42.72;;;17.60;;
35330;SDS011;21441;52.190;20.910;2022-12-20T02:52:03;26.20;;;11.55;;
35330;SDS011;21441;52.190;20.910;2022-12-20T02:54:32;35.92;;;15.27;;
35330;SDS011;21441;52.190;20.910;2022-12-20T02:57:03;31.83;;;14.52;;
35330;SDS011;21441;52.190;20.910;2022-12-20T02:59:35;23.75;;;11.75;;
35330;SDS011;21441;52.190;20.910;2022-12-20T03:02:06;23.92;;;11.45;;
35330;SDS011;21441;52.190;20.910;2022-12-20T03:04:35;24.92;;;12.35;;
35330;SDS011;21441;52.190;20.910;2022-12-20T03:07:05;29.88;;;14.52;;
35330;SDS011;21441;52.190;20.910;2022-12-20T03:09:34;31.50;;;14.23;;
35330;SDS011;21441;52.190;20.910;2022-12-20T03:12:03;26.55;;;10.38;;
35330;SDS011;21441;52.190;20.910;2022-12-20T03:14:31;40.00;;;17.75;;
35330;SDS011;21441;52.190;20.910;2022-12-20T03:16:58;35.03;;;16.45;;
35330;SDS011;21441;52.190;20.910;2022-12-20T03:19:27;31.42;;;14.15;;
35330;SDS011;21441;52.190;20.910;2022-12-20T03:21:54;26.85;;;12.77;;
35330;SDS011;21441;52.190;20.910;2022-12-20T03:24:21;46.00;;;19.00;;
35330;SDS011;21441;52.190;20.910;2022-12-20T03:26:48;35.83;;;18.80;;
35330;SDS011;21441;52.190;20.910;2022-12-20T03:29:15;33.80;;;16.85;;
35330;SDS011;21441;52.190;20.910;2022-12-20T03:31:43;34.78;;;15.85;;
35330;SDS011;21441;52.190;20.910;2022-12-20T03:34:09;38.63;;;17.50;;
35330;SDS011;21441;52.190;20.910;2022-12-20T03:36:38;28.50;;;12.90;;
35330;SDS011;21441;52.190;20.910;2022-12-20T03:39:05;40.30;;;16.75;;
35330;SDS011;21441;52.190;20.910;2022-12-20T03:41:32;36.45;;;17.15;;
35330;SDS011;21441;52.190;20.910;2022-12-20T03:43:59;39.00;;;15.95;;
35330;SDS011;21441;52.190;20.910;2022-12-20T03:46:29;32.20;;;15.43;;
35330;SDS011;21441;52.190;20.910;2022-12-20T03:48:56;34.88;;;15.13;;
35330;SDS011;21441;52.190;20.910;2022-12-20T03:51:23;39.58;;;15.90;;
35330;SDS011;21441;52.190;20.910;2022-12-20T03:53:51;31.90;;;14.00;;
35330;SDS011;21441;52.190;20.910;2022-12-20T03:56:18;35.30;;;15.50;;
35330;SDS011;21441;52.190;20.910;2022-12-20T03:58:45;34.05;;;18.45;;
35330;SDS011;21441;52.190;20.910;2022-12-20T04:01:16;39.20;;;16.63;;
35330;SDS011;21441;52.190;20.910;2022-12-20T04:03:45;37.97;;;16.80;;
35330;SDS011;21441;52.190;20.910;2022-12-20T04:06:12;29.83;;;14.00;;
35330;SDS011;21441;52.190;20.910;2022-12-20T04:08:39;31.35;;;13.90;;
35330;SDS011;21441;52.190;20.910;2022-12-20T04:11:08;27.48;;;13.35;;
35330;SDS011;21441;52.190;20.910;2022-12-20T04:13:44;29.45;;;14.82;;
35330;SDS011;21441;52.190;20.910;2022-12-20T04:16:15;35.90;;;16.35;;
35330;SDS011;21441;52.190;20.910;2022-12-20T04:18:44;39.92;;;15.43;;
35330;SDS011;21441;52.190;20.910;2022-12-20T04:21:11;39.13;;;17.40;;
35330;SDS011;21441;52.190;20.910;2022-12-20T04:23:39;40.20;;;18.33;;
35330;SDS011;21441;52.190;20.910;2022-12-20T04:26:09;41.25;;;17.55;;
35330;SDS011;21441;52.190;20.910;2022-12-20T04:28:37;42.90;;;18.65;;
35330;SDS011;21441;52.190;20.910;2022-12-20T04:31:05;39.15;;;19.05;;
35330;SDS011;21441;52.190;20.910;2022-12-20T04:33:32;39.53;;;19.55;;
35330;SDS011;21441;52.190;20.910;2022-12-20T04:36:00;46.80;;;21.17;;
35330;SDS011;21441;52.190;20.910;2022-12-20T04:38:27;41.17;;;18.95;;
35330;SDS011;21441;52.190;20.910;2022-12-20T04:40:54;45.03;;;19.30;;
35330;SDS011;21441;52.190;20.910;2022-12-20T04:43:23;38.30;;;17.05;;
35330;SDS011;21441;52.190;20.910;2022-12-20T04:45:51;31.70;;;15.57;;
35330;SDS011;21441;52.190;20.910;2022-12-20T04:48:20;43.75;;;17.80;;
35330;SDS011;21441;52.190;20.910;2022-12-20T04:50:50;37.27;;;17.23;;
35330;SDS011;21441;52.190;20.910;2022-12-20T04:53:17;32.05;;;15.20;;
35330;SDS011;21441;52.190;20.910;2022-12-20T04:56:03;29.92;;;14.23;;
35330;SDS011;21441;52.190;20.910;2022-12-20T04:58:31;36.40;;;16.15;;
35330;SDS011;21441;52.190;20.910;2022-12-20T05:00:58;39.15;;;16.85;;
35330;SDS011;21441;52.190;20.910;2022-12-20T05:03:26;36.08;;;15.93;;
35330;SDS011;21441;52.190;20.910;2022-12-20T05:05:53;39.58;;;17.73;;
35330;SDS011;21441;52.190;20.910;2022-12-20T05:08:20;55.60;;;23.83;;
35330;SDS011;21441;52.190;20.910;2022-12-20T05:10:47;31.42;;;13.05;;
35330;SDS011;21441;52.190;20.910;2022-12-20T05:13:15;42.22;;;17.55;;
35330;SDS011;21441;52.190;20.910;2022-12-20T05:15:44;35.67;;;18.35;;
35330;SDS011;21441;52.190;20.910;2022-12-20T05:18:11;34.13;;;16.38;;
35330;SDS011;21441;52.190;20.910;2022-12-20T05:20:38;41.33;;;18.25;;
35330;SDS011;21441;52.190;20.910;2022-12-20T05:23:05;31.73;;;15.90;;
35330;SDS011;21441;52.190;20.910;2022-12-20T05:25:52;30.80;;;15.23;;
35330;SDS011;21441;52.190;20.910;2022-12-20T05:28:36;39.45;;;19.02;;
35330;SDS011;21441;52.190;20.910;2022-12-20T05:31:05;35.65;;;17.33;;
35330;SDS011;21441;52.190;20.910;2022-12-20T05:33:32;36.03;;;16.25;;
35330;SDS011;21441;52.190;20.910;2022-12-20T05:36:00;31.65;;;13.60;;
35330;SDS011;21441;52.190;20.910;2022-12-20T05:38:27;31.52;;;13.02;;
35330;SDS011;21441;52.190;20.910;2022-12-20T05:40:54;40.20;;;18.55;;
35330;SDS011;21441;52.190;20.910;2022-12-20T05:43:21;35.13;;;16.17;;
35330;SDS011;21441;52.190;20.910;2022-12-20T05:45:50;36.45;;;16.60;;
35330;SDS011;21441;52.190;20.910;2022-12-20T05:48:19;20.02;;;10.65;;
35330;SDS011;21441;52.190;20.910;2022-12-20T05:50:47;23.60;;;11.70;;
35330;SDS011;21441;52.190;20.910;2022-12-20T05:53:14;27.38;;;10.10;;
35330;SDS011;21441;52.190;20.910;2022-12-20T05:55:43;18.67;;;8.32;;
35330;SDS011;21441;52.190;20.910;2022-12-20T05:58:10;23.80;;;11.05;;
35330;SDS011;21441;52.190;20.910;2022-12-20T06:00:39;24.50;;;11.80;;
35330;SDS011;21441;52.190;20.910;2022-12-20T06:03:06;16.00;;;9.07;;
35330;SDS011;21441;52.190;20.910;2022-12-20T06:05:36;26.13;;;13.48;;
35330;SDS011;21441;52.190;20.910;2022-12-20T06:08:05;20.83;;;10.38;;
35330;SDS011;21441;52.190;20.910;2022-12-20T06:10:33;27.13;;;14.05;;
35330;SDS011;21441;52.190;20.910;2022-12-20T06:13:00;26.55;;;13.18;;
35330;SDS011;21441;52.190;20.910;2022-12-20T06:15:28;32.58;;;13.27;;
35330;SDS011;21441;52.190;20.910;2022-12-20T06:17:55;22.55;;;11.30;;
35330;SDS011;21441;52.190;20.910;2022-12-20T06:20:23;23.75;;;11.95;;
35330;SDS011;21441;52.190;20.910;2022-12-20T06:22:51;26.35;;;14.35;;
35330;SDS011;21441;52.190;20.910;2022-12-20T06:25:19;29.33;;;13.82;;
35330;SDS011;21441;52.190;20.910;2022-12-20T06:27:46;25.45;;;13.27;;
35330;SDS011;21441;52.190;20.910;2022-12-20T06:30:13;26.80;;;11.93;;
35330;SDS011;21441;52.190;20.910;2022-12-20T06:32:41;31.05;;;14.40;;
35330;SDS011;21441;52.190;20.910;2022-12-20T06:35:08;33.97;;;15.15;;
35330;SDS011;21441;52.190;20.910;2022-12-20T06:37:35;26.10;;;12.70;;
35330;SDS011;21441;52.190;20.910;2022-12-20T06:40:07;30.40;;;14.93;;
35330;SDS011;21441;52.190;20.910;2022-12-20T06:45:02;29.17;;;14.35;;
35330;SDS011;21441;52.190;20.910;2022-12-20T06:47:30;20.17;;;10.95;;
35330;SDS011;21441;52.190;20.910;2022-12-20T06:49:57;27.50;;;12.85;;
35330;SDS011;21441;52.190;20.910;2022-12-20T06:52:24;29.55;;;13.77;;
35330;SDS011;21441;52.190;20.910;2022-12-20T06:54:52;24.92;;;12.65;;
35330;SDS011;21441;52.190;20.910;2022-12-20T06:57:20;25.13;;;11.27;;
35330;SDS011;21441;52.190;20.910;2022-12-20T06:59:47;25.65;;;11.52;;
35330;SDS011;21441;52.190;20.910;2022-12-20T07:02:14;22.90;;;10.95;;
35330;SDS011;21441;52.190;20.910;2022-12-20T07:04:42;27.38;;;13.32;;
35330;SDS011;21441;52.190;20.910;2022-12-20T07:07:10;23.55;;;13.20;;
35330;SDS011;21441;52.190;20.910;2022-12-20T07:09:38;24.92;;;13.82;;
35330;SDS011;21441;52.190;20.910;2022-12-20T07:12:06;25.52;;;12.38;;
35330;SDS011;21441;52.190;20.910;2022-12-20T07:14:35;30.77;;;12.85;;
35330;SDS011;21441;52.190;20.910;2022-12-20T07:17:03;26.40;;;12.23;;
35330;SDS011;21441;52.190;20.910;2022-12-20T07:19:30;25.75;;;11.70;;
35330;SDS011;21441;52.190;20.910;2022-12-20T07:21:57;30.15;;;12.45;;
35330;SDS011;21441;52.190;20.910;2022-12-20T07:24:25;25.75;;;11.57;;
35330;SDS011;21441;52.190;20.910;2022-12-20T07:26:52;25.55;;;12.57;;
35330;SDS011;21441;52.190;20.910;2022-12-20T07:29:19;30.23;;;12.98;;
35330;SDS011;21441;52.190;20.910;2022-12-20T07:31:47;28.13;;;13.75;;
35330;SDS011;21441;52.190;20.910;2022-12-20T07:34:15;24.95;;;12.57;;
35330;SDS011;21441;52.190;20.910;2022-12-20T07:36:42;28.10;;;14.70;;
35330;SDS011;21441;52.190;20.910;2022-12-20T07:39:10;27.63;;;13.75;;
35330;SDS011;21441;52.190;20.910;2022-12-20T07:41:37;27.45;;;13.73;;
35330;SDS011;21441;52.190;20.910;2022-12-20T07:44:04;26.85;;;12.07;;
35330;SDS011;21441;52.190;20.910;2022-12-20T07:46:31;24.95;;;13.45;;
35330;SDS011;21441;52.190;20.910;2022-12-20T07:49:00;25.40;;;12.75;;
35330;SDS011;21441;52.190;20.910;2022-12-20T07:51:28;29.05;;;13.93;;
35330;SDS011;21441;52.190;20.910;2022-12-20T07:54:01;26.15;;;13.40;;
35330;SDS011;21441;52.190;20.910;2022-12-20T07:56:31;28.83;;;13.73;;
35330;SDS011;21441;52.190;20.910;2022-12-20T08:01:29;22.95;;;13.25;;
35330;SDS011;21441;52.190;20.910;2022-12-20T08:03:59;26.08;;;14.13;;
35330;SDS011;21441;52.190;20.910;2022-12-20T08:06:31;45.33;;;16.92;;
35330;SDS011;21441;52.190;20.910;2022-12-20T08:09:00;60.40;;;23.05;;
35330;SDS011;21441;52.190;20.910;2022-12-20T08:13:59;87.97;;;31.02;;
35330;SDS011;21441;52.190;20.910;2022-12-20T08:16:26;128.50;;;46.65;;
35330;SDS011;21441;52.190;20.910;2022-12-20T08:18:53;52.85;;;23.33;;
35330;SDS011;21441;52.190;20.910;2022-12-20T08:21:22;51.90;;;18.90;;
35330;SDS011;21441;52.190;20.910;2022-12-20T08:23:49;35.22;;;14.68;;
35330;SDS011;21441;52.190;20.910;2022-12-20T08:26:16;23.38;;;10.43;;
35330;SDS011;21441;52.190;20.910;2022-12-20T08:28:44;29.83;;;15.07;;
35330;SDS011;21441;52.190;20.910;2022-12-20T08:31:11;29.15;;;12.82;;
35330;SDS011;21441;52.190;20.910;2022-12-20T08:33:39;31.23;;;12.95;;
35330;SDS011;21441;52.190;20.910;2022-12-20T08:36:07;24.75;;;12.13;;
35330;SDS011;21441;52.190;20.910;2022-12-20T08:38:39;28.42;;;14.10;;
35330;SDS011;21441;52.190;20.910;2022-12-20T08:41:07;36.22;;;16.52;;
35330;SDS011;21441;52.190;20.910;2022-12-20T08:43:37;64.57;;;25.10;;
35330;SDS011;21441;52.190;20.910;2022-12-20T08:46:05;57.90;;;21.70;;
35330;SDS011;21441;52.190;20.910;2022-12-20T08:48:32;43.95;;;18.85;;
35330;SDS011;21441;52.190;20.910;2022-12-20T08:51:01;35.85;;;15.63;;
35330;SDS011;21441;52.190;20.910;2022-12-20T08:53:31;27.73;;;13.82;;
35330;SDS011;21441;52.190;20.910;2022-12-20T08:56:04;27.40;;;13.23;;
35330;SDS011;21441;52.190;20.910;2022-12-20T08:58:32;30.00;;;13.93;;
35330;SDS011;21441;52.190;20.910;2022-12-20T09:01:00;24.00;;;13.00;;
35330;SDS011;21441;52.190;20.910;2022-12-20T09:03:29;27.08;;;13.65;;
35330;SDS011;21441;52.190;20.910;2022-12-20T09:05:57;28.27;;;14.43;;
35330;SDS011;21441;52.190;20.910;2022-12-20T09:08:25;25.35;;;13.55;;
35330;SDS011;21441;52.190;20.910;2022-12-20T09:10:52;29.13;;;13.95;;
35330;SDS011;21441;52.190;20.910;2022-12-20T09:13:30;30.27;;;14.90;;
35330;SDS011;21441;52.190;20.910;2022-12-20T09:15:58;29.60;;;13.45;;
35330;SDS011;21441;52.190;20.910;2022-12-20T09:18:26;34.60;;;16.40;;
35330;SDS011;21441;52.190;20.910;2022-12-20T09:20:53;26.85;;;13.82;;
35330;SDS011;21441;52.190;20.910;2022-12-20T09:23:21;27.67;;;12.00;;
35330;SDS011;21441;52.190;20.910;2022-12-20T09:25:48;28.33;;;12.95;;
35330;SDS011;21441;52.190;20.910;2022-12-20T09:28:16;26.63;;;13.32;;
35330;SDS011;21441;52.190;20.910;2022-12-20T09:30:44;29.55;;;14.43;;
35330;SDS011;21441;52.190;20.910;2022-12-20T09:33:12;32.33;;;15.82;;
35330;SDS011;21441;52.190;20.910;2022-12-20T09:35:43;31.70;;;16.75;;
35330;SDS011;21441;52.190;20.910;2022-12-20T09:38:11;27.30;;;13.98;;
35330;SDS011;21441;52.190;20.910;2022-12-20T09:40:43;27.90;;;14.32;;
35330;SDS011;21441;52.190;20.910;2022-12-20T09:43:11;31.63;;;13.98;;
35330;SDS011;21441;52.190;20.910;2022-12-20T09:45:40;28.85;;;12.88;;
35330;SDS011;21441;52.190;20.910;2022-12-20T09:48:10;23.05;;;11.30;;
35330;SDS011;21441;52.190;20.910;2022-12-20T09:50:45;31.50;;;13.27;;
35330;SDS011;21441;52.190;20.910;2022-12-20T09:53:18;30.25;;;14.80;;
35330;SDS011;21441;52.190;20.910;2022-12-20T09:55:55;27.90;;;13.73;;
35330;SDS011;21441;52.190;20.910;2022-12-20T09:58:30;28.42;;;13.05;;
35330;SDS011;21441;52.190;20.910;2022-12-20T10:03:41;28.38;;;12.63;;
35330;SDS011;21441;52.190;20.910;2022-12-20T10:06:10;26.80;;;15.90;;
35330;SDS011;21441;52.190;20.910;2022-12-20T10:08:49;23.98;;;11.75;;
35330;SDS011;21441;52.190;20.910;2022-12-20T10:14:22;25.17;;;13.48;;
35330;SDS011;21441;52.190;20.910;2022-12-20T10:17:00;29.13;;;15.55;;
35330;SDS011;21441;52.190;20.910;2022-12-20T10:19:38;27.90;;;14.25;;
35330;SDS011;21441;52.190;20.910;2022-12-20T10:22:22;28.73;;;13.73;;
35330;SDS011;21441;52.190;20.910;2022-12-20T10:24:56;24.15;;;12.75;;
35330;SDS011;21441;52.190;20.910;2022-12-20T10:27:27;27.30;;;13.75;;
35330;SDS011;21441;52.190;20.910;2022-12-20T10:29:57;32.42;;;16.05;;
35330;SDS011;21441;52.190;20.910;2022-12-20T10:32:24;24.77;;;12.95;;
35330;SDS011;21441;52.190;20.910;2022-12-20T10:34:56;27.20;;;13.93;;
35330;SDS011;21441;52.190;20.910;2022-12-20T10:37:41;25.25;;;13.68;;
35330;SDS011;21441;52.190;20.910;2022-12-20T10:40:24;27.30;;;13.70;;
35330;SDS011;21441;52.190;20.910;2022-12-20T10:42:53;25.98;;;14.40;;
35330;SDS011;21441;52.190;20.910;2022-12-20T10:45:31;25.42;;;13.88;;
35330;SDS011;21441;52.190;20.910;2022-12-20T10:48:02;28.47;;;13.93;;
35330;SDS011;21441;52.190;20.910;2022-12-20T10:50:33;27.15;;;13.65;;
35330;SDS011;21441;52.190;20.910;2022-12-20T10:53:20;26.77;;;13.57;;
35330;SDS011;21441;52.190;20.910;2022-12-20T10:55:49;26.63;;;13.80;;
35330;SDS011;21441;52.190;20.910;2022-12-20T10:58:20;27.58;;;14.10;;
35330;SDS011;21441;52.190;20.910;2022-12-20T11:01:10;24.40;;;13.05;;
35330;SDS011;21441;52.190;20.910;2022-12-20T11:03:50;27.45;;;14.07;;
35330;SDS011;21441;52.190;20.910;2022-12-20T11:06:22;26.55;;;13.73;;
35330;SDS011;21441;52.190;20.910;2022-12-20T11:08:50;27.75;;;13.85;;
35330;SDS011;21441;52.190;20.910;2022-12-20T11:11:19;24.58;;;13.48;;
35330;SDS011;21441;52.190;20.910;2022-12-20T11:13:48;28.35;;;15.32;;
35330;SDS011;21441;52.190;20.910;2022-12-20T11:16:25;31.63;;;14.80;;
35330;SDS011;21441;52.190;20.910;2022-12-20T11:19:00;32.00;;;15.10;;
35330;SDS011;21441;52.190;20.910;2022-12-20T11:21:40;23.55;;;12.90;;
35330;SDS011;21441;52.190;20.910;2022-12-20T11:24:17;26.98;;;13.10;;
35330;SDS011;21441;52.190;20.910;2022-12-20T11:26:57;28.55;;;15.95;;
35330;SDS011;21441;52.190;20.910;2022-12-20T11:29:43;32.70;;;15.23;;
35330;SDS011;21441;52.190;20.910;2022-12-20T11:32:31;31.77;;;15.90;;
35330;SDS011;21441;52.190;20.910;2022-12-20T11:35:10;31.23;;;15.02;;
35330;SDS011;21441;52.190;20.910;2022-12-20T11:37:47;33.75;;;15.27;;
35330;SDS011;21441;52.190;20.910;2022-12-20T11:40:25;34.97;;;16.30;;
35330;SDS011;21441;52.190;20.910;2022-12-20T11:43:03;29.35;;;14.70;;
35330;SDS011;21441;52.190;20.910;2022-12-20T11:45:57;30.75;;;14.52;;
35330;SDS011;21441;52.190;20.910;2022-12-20T11:48:40;29.08;;;14.82;;
35330;SDS011;21441;52.190;20.910;2022-12-20T11:51:23;31.20;;;15.65;;
35330;SDS011;21441;52.190;20.910;2022-12-20T11:54:03;30.45;;;15.88;;
35330;SDS011;21441;52.190;20.910;2022-12-20T11:56:39;29.50;;;13.05;;
35330;SDS011;21441;52.190;20.910;2022-12-20T11:59:11;33.78;;;15.25;;
35330;SDS011;21441;52.190;20.910;2022-12-20T12:01:48;30.88;;;14.32;;
35330;SDS011;21441;52.190;20.910;2022-12-20T12:04:24;31.33;;;14.93;;
35330;SDS011;21441;52.190;20.910;2022-12-20T12:06:55;34.65;;;15.07;;
35330;SDS011;21441;52.190;20.910;2022-12-20T12:09:29;30.42;;;14.68;;
35330;SDS011;21441;52.190;20.910;2022-12-20T12:12:01;24.50;;;12.57;;
35330;SDS011;21441;52.190;20.910;2022-12-20T12:14:37;29.67;;;14.05;;
35330;SDS011;21441;52.190;20.910;2022-12-20T12:17:17;29.25;;;15.07;;
35330;SDS011;21441;52.190;20.910;2022-12-20T12:19:51;30.48;;;15.60;;
35330;SDS011;21441;52.190;20.910;2022-12-20T12:22:23;27.98;;;15.48;;
35330;SDS011;21441;52.190;20.910;2022-12-20T12:24:58;33.00;;;15.73;;
35330;SDS011;21441;52.190;20.910;2022-12-20T12:27:31;26.25;;;14.50;;
35330;SDS011;21441;52.190;20.910;2022-12-20T12:29:59;26.30;;;14.57;;
35330;SDS011;21441;52.190;20.910;2022-12-20T12:32:28;30.27;;;14.95;;
35330;SDS011;21441;52.190;20.910;2022-12-20T12:35:08;28.42;;;13.93;;
35330;SDS011;21441;52.190;20.910;2022-12-20T12:37:50;29.45;;;15.25;;
35330;SDS011;21441;52.190;20.910;2022-12-20T12:40:36;29.77;;;14.52;;
35330;SDS011;21441;52.190;20.910;2022-12-20T12:43:28;27.95;;;14.98;;
35330;SDS011;21441;52.190;20.910;2022-12-20T12:46:12;26.77;;;14.90;;
35330;SDS011;21441;52.190;20.910;2022-12-20T12:48:42;28.17;;;14.93;;
35330;SDS011;21441;52.190;20.910;2022-12-20T12:51:15;31.15;;;14.88;;
35330;SDS011;21441;52.190;20.910;2022-12-20T12:53:51;29.40;;;14.80;;
35330;SDS011;21441;52.190;20.910;2022-12-20T12:59:23;32.28;;;16.05;;
35330;SDS011;21441;52.190;20.910;2022-12-20T13:02:22;32.60;;;15.40;;
35330;SDS011;21441;52.190;20.910;2022-12-20T13:05:28;25.00;;;12.80;;
35330;SDS011;21441;52.190;20.910;2022-12-20T13:07:57;30.08;;;16.00;;
35330;SDS011;21441;52.190;20.910;2022-12-20T13:13:33;49.78;;;22.48;;
35330;SDS011;21441;52.190;20.910;2022-12-20T13:16:05;42.80;;;22.80;;
35330;SDS011;21441;52.190;20.910;2022-12-20T13:18:37;46.67;;;23.00;;
35330;SDS011;21441;52.190;20.910;2022-12-20T13:27:28;60.47;;;26.45;;
35330;SDS011;21441;52.190;20.910;2022-12-20T13:30:00;35.47;;;19.15;;
35330;SDS011;21441;52.190;20.910;2022-12-20T13:38:57;38.47;;;20.63;;
35330;SDS011;21441;52.190;20.910;2022-12-20T13:41:27;38.97;;;19.38;;
35330;SDS011;21441;52.190;20.910;2022-12-20T13:44:02;44.08;;;21.25;;
35330;SDS011;21441;52.190;20.910;2022-12-20T13:46:46;32.00;;;16.45;;
35330;SDS011;21441;52.190;20.910;2022-12-20T13:49:21;35.92;;;17.63;;
35330;SDS011;21441;52.190;20.910;2022-12-20T13:54:48;33.65;;;17.70;;
35330;SDS011;21441;52.190;20.910;2022-12-20T13:57:20;32.58;;;16.13;;
35330;SDS011;21441;52.190;20.910;2022-12-20T13:59:53;38.90;;;18.65;;
35330;SDS011;21441;52.190;20.910;2022-12-20T14:02:25;38.72;;;18.35;;
35330;SDS011;21441;52.190;20.910;2022-12-20T14:04:57;32.35;;;17.23;;
35330;SDS011;21441;52.190;20.910;2022-12-20T14:07:27;34.70;;;17.83;;
35330;SDS011;21441;52.190;20.910;2022-12-20T14:09:58;36.63;;;18.65;;
35330;SDS011;21441;52.190;20.910;2022-12-20T14:12:27;39.58;;;21.80;;
35330;SDS011;21441;52.190;20.910;2022-12-20T14:14:56;43.85;;;21.67;;
35330;SDS011;21441;52.190;20.910;2022-12-20T14:17:26;39.38;;;20.33;;
35330;SDS011;21441;52.190;20.910;2022-12-20T14:20:03;45.30;;;19.83;;
35330;SDS011;21441;52.190;20.910;2022-12-20T14:22:32;48.92;;;20.38;;
35330;SDS011;21441;52.190;20.910;2022-12-20T14:25:01;38.53;;;19.90;;
35330;SDS011;21441;52.190;20.910;2022-12-20T14:27:32;42.10;;;21.40;;
35330;SDS011;21441;52.190;20.910;2022-12-20T14:30:03;38.78;;;19.15;;
35330;SDS011;21441;52.190;20.910;2022-12-20T14:32:33;37.78;;;18.77;;
35330;SDS011;21441;52.190;20.910;2022-12-20T14:35:00;38.30;;;20.95;;
35330;SDS011;21441;52.190;20.910;2022-12-20T14:37:32;34.72;;;18.35;;
35330;SDS011;21441;52.190;20.910;2022-12-20T14:40:13;34.58;;;16.67;;
35330;SDS011;21441;52.190;20.910;2022-12-20T14:42:44;32.65;;;16.30;;
35330;SDS011;21441;52.190;20.910;2022-12-20T14:45:16;32.65;;;17.45;;
35330;SDS011;21441;52.190;20.910;2022-12-20T14:47:48;36.13;;;16.38;;
35330;SDS011;21441;52.190;20.910;2022-12-20T14:50:21;37.50;;;18.83;;
35330;SDS011;21441;52.190;20.910;2022-12-20T14:52:54;34.50;;;16.48;;
35330;SDS011;21441;52.190;20.910;2022-12-20T14:55:22;42.28;;;19.42;;
35330;SDS011;21441;52.190;20.910;2022-12-20T14:57:55;36.20;;;17.00;;
35330;SDS011;21441;52.190;20.910;2022-12-20T15:00:23;40.42;;;19.42;;
35330;SDS011;21441;52.190;20.910;2022-12-20T15:05:41;41.95;;;21.20;;
35330;SDS011;21441;52.190;20.910;2022-12-20T15:08:12;36.83;;;19.10;;
35330;SDS011;21441;52.190;20.910;2022-12-20T15:10:41;35.47;;;17.50;;
35330;SDS011;21441;52.190;20.910;2022-12-20T15:13:13;43.63;;;20.35;;